Terminal Aerodrome Forecast
Issued by NWS

Home | Current Version | Previous Version | Text Only | Print | Product List | Glossary On
Versions: 1 2 3 4 5 6 7 8 9 10 11 12 13 14 15 16 17 18 19 20 21 22 23
262
FTUS44 KOUN 030531
TAFWWR
TAF
KWWR 030531Z 0306/0406 VRB04KT P6SM SCT250
     FM031500 22010KT P6SM BKN150 PROB30 0318/0322 4SM -TSRA
      BKN040CB
     FM032200 31015KT P6SM BKN150=

USA.gov is the U.S. government's official web portal to all federal, state and local government web resources and services.